| time (UTC) | temp C | wind direction | speed KPH | gust KPH | rain 1hr cm | rain 24hr cm | rain mn cm | humidity % | barometer mb |
| 20260509073025 | 16 | 41 | 1.6 | 8.0 | 0.00 | 0.00 | 0.00 | 41 | 1017.8 |
| 20260509071524 | 15 | 82 | 11.3 | 19.3 | 0.00 | 0.00 | 0.00 | 44 | 1017.7 |
| 20260509070032 | 16 | 11 | 11.3 | 14.5 | 0.00 | 0.00 | 0.00 | 40 | 1017.1 |
| 20260509064521 | 16 | 311 | 11.3 | 14.5 | 0.00 | 0.00 | 0.00 | 41 | 1017.1 |
| 20260509063020 | 17 | 97 | 4.8 | 11.3 | 0.00 | 0.00 | 0.00 | 39 | 1017.2 |
| 20260509061520 | 18 | 293 | 1.6 | 25.7 | 0.00 | 0.00 | 0.00 | 37 | 1016.8 |
| 20260509060100 | 19 | 335 | 24.1 | 33.8 | 0.00 | 0.00 | 0.00 | 35 | 1016.4 |
| 20260509054600 | 19 | 360 | 17.7 | 33.8 | 0.00 | 0.00 | 0.00 | 35 | 1016.2 |
| 20260509053044 | 20 | 344 | 30.6 | 43.5 | 0.00 | 0.00 | 0.00 | 34 | 1016.0 |
| 20260509051543 | 19 | 323 | 17.7 | 35.4 | 0.00 | 0.00 | 0.00 | 34 | 1015.8 |
| 20260509050040 | 20 | 335 | 22.5 | 37.0 | 0.00 | 0.00 | 0.00 | 33 | 1015.7 |
| 20260509044518 | 20 | 335 | 22.5 | 32.2 | 0.00 | 0.00 | 0.00 | 32 | 1015.6 |
| 20260509043104 | 20 | 338 | 22.5 | 35.4 | 0.00 | 0.00 | 0.00 | 31 | 1015.6 |
| 20260509043002 | 20 | 343 | 25.7 | 35.4 | 0.00 | 0.00 | 0.00 | 31 | 1015.6 |
| 20260509041600 | 20 | 356 | 17.7 | 25.7 | 0.00 | 0.00 | 0.00 | 31 | 1015.5 |
| 20260509040048 | 20 | 349 | 14.5 | 22.5 | 0.00 | 0.00 | 0.00 | 29 | 1015.3 |
| 20260509034545 | 20 | 338 | 16.1 | 30.6 | 0.00 | 0.00 | 0.00 | 28 | 1014.9 |
| 20260509033058 | 20 | 332 | 17.7 | 29.0 | 0.00 | 0.00 | 0.00 | 27 | 1014.7 |
| 20260509031540 | 20 | 324 | 20.9 | 32.2 | 0.00 | 0.00 | 0.00 | 25 | 1014.5 |
| 20260509030039 | 21 | 326 | 17.7 | 32.2 | 0.00 | 0.00 | 0.00 | 23 | 1014.3 |
| 20260509024540 | 21 | 355 | 20.9 | 29.0 | 0.00 | 0.00 | 0.00 | 21 | 1014.0 |
| 20260509023036 | 22 | 347 | 22.5 | 37.0 | 0.00 | 0.00 | 0.00 | 20 | 1013.8 |
| 20260509021534 | 22 | 352 | 22.5 | 33.8 | 0.00 | 0.00 | 0.00 | 18 | 1013.7 |
| 20260509020022 | 23 | 350 | 25.7 | 37.0 | 0.00 | 0.00 | 0.00 | 17 | 1013.5 |
| 20260509014518 | 23 | 341 | 20.9 | 38.6 | 0.00 | 0.00 | 0.00 | 17 | 1013.4 |
| 20260509013001 | 24 | 336 | 27.4 | 38.6 | 0.00 | 0.00 | 0.00 | 17 | 1013.3 |
| 20260509011504 | 25 | 360 | 25.7 | 38.6 | 0.00 | 0.00 | 0.00 | 17 | 1013.2 |
| 20260509010101 | 25 | 343 | 16.1 | 33.8 | 0.00 | 0.00 | 0.00 | 18 | 1013.1 |
| 20260509004603 | 25 | 338 | 22.5 | 35.4 | 0.00 | 0.00 | 0.00 | 18 | 1013.2 |
| 20260509003102 | 26 | 336 | 16.1 | 32.2 | 0.00 | 0.00 | 0.00 | 16 | 1012.9 |
| 20260509001559 | 26 | 32 | 16.1 | 29.0 | 0.00 | 0.00 | 0.00 | 18 | 1012.8 |
| 20260509000058 | 26 | 358 | 14.5 | 25.7 | 0.00 | 0.00 | 0.00 | 17 | 1012.8 |
| 20260508234558 | 26 | 9 | 16.1 | 27.4 | 0.00 | 0.00 | 0.00 | 16 | 1012.7 |
| 20260508233039 | 26 | 309 | 8.0 | 29.0 | 0.00 | 0.00 | 0.00 | 18 | 1012.6 |
| 20260508231545 | 26 | 340 | 8.0 | 24.1 | 0.00 | 0.00 | 0.00 | 19 | 1012.7 |
| 20260508230020 | 26 | 285 | 0.0 | 19.3 | 0.00 | 0.00 | 0.00 | 18 | 1012.7 |
| 20260508224540 | 26 | 340 | 14.5 | 37.0 | 0.00 | 0.00 | 0.00 | 17 | 1012.9 |
| 20260508223100 | 26 | 301 | 16.1 | 32.2 | 0.00 | 0.00 | 0.00 | 17 | 1013.0 |
| 20260508223002 | 26 | 318 | 19.3 | 32.2 | 0.00 | 0.00 | 0.00 | 17 | 1012.9 |
| 20260508221610 | 26 | 205 | 19.3 | 41.8 | 0.00 | 0.00 | 0.00 | 17 | 1012.8 |
| 20260508220041 | 25 | 243 | 16.1 | 33.8 | 0.00 | 0.00 | 0.00 | 20 | 1012.9 |
| 20260508214546 | 26 | 304 | 16.1 | 30.6 | 0.00 | 0.00 | 0.00 | 19 | 1013.1 |
| 20260508213030 | 25 | 254 | 14.5 | 27.4 | 0.00 | 0.00 | 0.00 | 20 | 1013.0 |
| 20260508211524 | 26 | 312 | 14.5 | 35.4 | 0.00 | 0.00 | 0.00 | 18 | 1013.1 |
| 20260508210001 | 25 | 311 | 16.1 | 29.0 | 0.00 | 0.00 | 0.00 | 17 | 1013.1 |
| 20260508204559 | 25 | 278 | 20.9 | 29.0 | 0.00 | 0.00 | 0.00 | 19 | 1013.2 |
| 20260508203039 | 24 | 278 | 11.3 | 27.4 | 0.00 | 0.00 | 0.00 | 18 | 1013.1 |
| 20260508201540 | 24 | 301 | 17.7 | 30.6 | 0.00 | 0.00 | 0.00 | 16 | 1013.3 |
| 20260508200029 | 23 | 261 | 22.5 | 40.2 | 0.00 | 0.00 | 0.00 | 19 | 1013.1 |
| 20260508194515 | 23 | 278 | 25.7 | 45.1 | 0.00 | 0.00 | 0.00 | 20 | 1013.2 |
| 20260508193003 | 23 | 284 | 29.0 | 43.5 | 0.00 | 0.00 | 0.00 | 20 | 1013.0 |
| 20260508191500 | 23 | 249 | 27.4 | 40.2 | 0.00 | 0.00 | 0.00 | 22 | 1013.0 |
| 20260508190100 | 22 | 260 | 25.7 | 35.4 | 0.00 | 0.00 | 0.00 | 23 | 1013.1 |
| 20260508184559 | 23 | 256 | 24.1 | 38.6 | 0.00 | 0.00 | 0.00 | 25 | 1013.3 |
| 20260508183124 | 22 | 210 | 27.4 | 38.6 | 0.00 | 0.00 | 0.00 | 26 | 1013.4 |
| 20260508181610 | 22 | 203 | 27.4 | 38.6 | 0.00 | 0.00 | 0.00 | 26 | 1013.5 |
| 20260508180051 | 22 | 269 | 27.4 | 37.0 | 0.00 | 0.00 | 0.00 | 28 | 1013.5 |
| 20260508174549 | 21 | 248 | 22.5 | 37.0 | 0.00 | 0.00 | 0.00 | 29 | 1013.6 |
| 20260508173028 | 20 | 214 | 25.7 | 33.8 | 0.00 | 0.00 | 0.00 | 35 | 1013.7 |
| 20260508171533 | 18 | 191 | 20.9 | 30.6 | 0.00 | 0.00 | 0.00 | 39 | 1013.8 |
| 20260508170004 | 18 | 222 | 24.1 | 35.4 | 0.00 | 0.00 | 0.00 | 39 | 1013.7 |
| 20260508164504 | 18 | 255 | 27.4 | 33.8 | 0.00 | 0.00 | 0.00 | 40 | 1013.7 |
| 20260508163048 | 18 | 195 | 20.9 | 30.6 | 0.00 | 0.00 | 0.00 | 41 | 1013.7 |
| 20260508161542 | 18 | 191 | 16.1 | 32.2 | 0.00 | 0.00 | 0.00 | 42 | 1013.8 |
| 20260508160023 | 17 | 128 | 0.0 | 11.3 | 0.00 | 0.00 | 0.00 | 45 | 1013.7 |
| 20260508154520 | 17 | 14 | 0.0 | 14.5 | 0.00 | 0.00 | 0.00 | 45 | 1013.5 |
| 20260508153005 | 16 | 291 | 12.9 | 30.6 | 0.00 | 0.00 | 0.00 | 45 | 1013.5 |
| 20260508151504 | 16 | 183 | 6.4 | 22.5 | 0.00 | 0.00 | 0.00 | 47 | 1013.3 |
| 20260508150124 | 15 | 165 | 12.9 | 20.9 | 0.00 | 0.00 | 0.00 | 50 | 1013.3 |
| 20260508144604 | 14 | 198 | 3.2 | 11.3 | 0.00 | 0.00 | 0.00 | 54 | 1013.4 |
| 20260508143055 | 13 | 278 | 3.2 | 9.7 | 0.00 | 0.00 | 0.00 | 57 | 1013.4 |
| 20260508141602 | 12 | 127 | 0.0 | 0.0 | 0.00 | 0.00 | 0.00 | 61 | 1013.2 |
| 20260508140059 | 12 | 127 | 0.0 | 0.0 | 0.00 | 0.00 | 0.00 | 59 | 1013.2 |
| 20260508134551 | 12 | 266 | 0.0 | 0.0 | 0.00 | 0.00 | 0.00 | 59 | 1013.0 |
| 20260508133035 | 11 | 121 | 0.0 | 0.0 | 0.00 | 0.00 | 0.00 | 59 | 1012.9 |
| 20260508131533 | 11 | 62 | 0.0 | 0.0 | 0.00 | 0.00 | 0.00 | 60 | 1012.7 |
| 20260508130013 | 10 | 62 | 0.0 | 3.2 | 0.00 | 0.00 | 0.00 | 60 | 1012.6 |
| 20260508124511 | 11 | 127 | 0.0 | 6.4 | 0.00 | 0.00 | 0.00 | 58 | 1012.5 |
| 20260508123043 | 11 | 97 | 4.8 | 8.0 | 0.00 | 0.00 | 0.00 | 56 | 1012.4 |
| 20260508121540 | 13 | 77 | 4.8 | 11.3 | 0.00 | 0.00 | 0.00 | 48 | 1012.3 |
| 20260508120022 | 15 | 274 | 12.9 | 17.7 | 0.00 | 0.00 | 0.00 | 47 | 1012.3 |
| 20260508114529 | 15 | 281 | 12.9 | 17.7 | 0.00 | 0.00 | 0.00 | 47 | 1012.2 |
| 20260508113126 | 15 | 301 | 11.3 | 17.7 | 0.00 | 0.00 | 0.00 | 46 | 1012.1 |
| 20260508111601 | 14 | 278 | 11.3 | 25.7 | 0.00 | 0.00 | 0.00 | 47 | 1012.0 |
| 20260508110041 | 13 | 278 | 9.7 | 22.5 | 0.00 | 0.00 | 0.00 | 48 | 1011.8 |
| 20260508104553 | 13 | 283 | 9.7 | 19.3 | 0.00 | 0.00 | 0.00 | 48 | 1011.8 |
| 20260508103026 | 14 | 266 | 14.5 | 20.9 | 0.00 | 0.00 | 0.00 | 45 | 1011.7 |
| 20260508101532 | 15 | 271 | 16.1 | 25.7 | 0.00 | 0.00 | 0.00 | 42 | 1011.6 |
| 20260508100011 | 15 | 267 | 14.5 | 22.5 | 0.00 | 0.00 | 0.00 | 42 | 1011.5 |
| 20260508094510 | 15 | 294 | 6.4 | 16.1 | 0.00 | 0.00 | 0.00 | 42 | 1011.6 |
| 20260508093014 | 14 | 279 | 9.7 | 20.9 | 0.00 | 0.00 | 0.00 | 41 | 1011.5 |
| 20260508091509 | 15 | 259 | 16.1 | 27.4 | 0.00 | 0.00 | 0.00 | 40 | 1011.6 |
| 20260508090008 | 14 | 271 | 12.9 | 19.3 | 0.00 | 0.00 | 0.00 | 42 | 1011.7 |
| 20260508084508 | 14 | 274 | 14.5 | 19.3 | 0.00 | 0.00 | 0.00 | 44 | 1011.7 |
| 20260508083009 | 15 | 272 | 14.5 | 22.5 | 0.00 | 0.00 | 0.00 | 43 | 1011.8 |
| 20260508081509 | 15 | 283 | 14.5 | 19.3 | 0.00 | 0.00 | 0.00 | 45 | 1011.7 |
| 20260508080007 | 15 | 278 | 11.3 | 14.5 | 0.00 | 0.00 | 0.00 | 44 | 1011.7 |
| 20260508074553 | 16 | 266 | 9.7 | 14.5 | 0.00 | 0.00 | 0.00 | 41 | 1011.7 |
| 20260508073149 | 16 | 281 | 11.3 | 14.5 | 0.00 | 0.00 | 0.00 | 39 | 1011.6 |